Time;durP1;ratioP1;P1;durP2;ratioP2;P2;SDS_P1;SDS_P2;PMS_P1;PMS_P2;Temp;Humidity;BMP_temperature;BMP_pressure;BME280_temperature;BME280_humidity;BME280_pressure;Samples;Min_cycle;Max_cycle;Signal;HPM_P1;HPM_P2
2022/01/19 00:00:37;;;;;;;45.88;24.27;;;;;;;0.77;100.00;101324.19;5012526;28;20026;-79
2022/01/19 00:03:03;;;;;;;50.03;23.48;;;;;;;0.72;100.00;101308.72;4994555;28;20022;-79
2022/01/19 00:05:28;;;;;;;49.35;22.63;;;;;;;0.74;100.00;101299.34;5012409;28;20061;-79
2022/01/19 00:07:54;;;;;;;42.75;21.58;;;;;;;0.78;100.00;101296.00;5012199;28;20022;-79
2022/01/19 00:10:26;;;;;;;48.47;22.08;;;;;;;0.84;100.00;101303.81;5012552;28;20030;-79
2022/01/19 00:12:54;;;;;;;43.97;21.80;;;;;;;0.85;100.00;101304.69;5012112;28;20029;-79
2022/01/19 00:15:20;;;;;;;38.55;19.65;;;;;;;0.82;100.00;101290.09;5012159;28;20044;-79
2022/01/19 00:17:45;;;;;;;37.30;17.20;;;;;;;0.89;100.00;101303.94;4994448;28;20026;-79
2022/01/19 00:20:11;;;;;;;30.88;15.27;;;;;;;0.87;100.00;101297.88;5011774;28;20462;-79
2022/01/19 00:22:37;;;;;;;26.20;12.98;;;;;;;0.80;100.00;101283.19;5012090;28;20030;-79
2022/01/19 00:25:05;;;;;;;26.17;12.77;;;;;;;0.79;100.00;101282.34;5012044;28;20041;-79
2022/01/19 00:27:30;;;;;;;29.45;13.00;;;;;;;0.89;100.00;101294.53;4994456;28;20072;-79
2022/01/19 00:29:55;;;;;;;29.33;14.00;;;;;;;0.84;100.00;101272.16;4994365;28;20382;-79
2022/01/19 00:32:23;;;;;;;31.98;14.18;;;;;;;0.86;100.00;101270.50;4994166;28;20133;-79
2022/01/19 00:34:48;;;;;;;26.05;12.85;;;;;;;0.92;100.00;101283.44;4994046;28;20022;-79
2022/01/19 00:37:14;;;;;;;26.27;12.52;;;;;;;0.97;100.00;101286.97;4994503;28;20184;-79
2022/01/19 00:39:39;;;;;;;31.48;12.98;;;;;;;0.95;100.00;101273.25;4994400;28;20025;-79
2022/01/19 00:42:05;;;;;;;23.60;12.10;;;;;;;0.86;100.00;101256.00;4994185;28;20492;-79
2022/01/19 00:44:30;;;;;;;28.55;12.95;;;;;;;0.89;100.00;101262.88;5011956;28;20108;-79
2022/01/19 00:46:55;;;;;;;26.20;12.35;;;;;;;0.98;100.00;101266.47;5011704;28;20109;-79
2022/01/19 00:49:21;;;;;;;23.73;12.85;;;;;;;0.96;100.00;101269.84;5012131;28;20057;-79
2022/01/19 00:51:46;;;;;;;24.15;12.55;;;;;;;1.01;100.00;101278.47;4989402;28;20097;-79
2022/01/19 00:54:12;;;;;;;21.58;11.35;;;;;;;1.03;100.00;101279.38;5008336;28;20528;-79
2022/01/19 00:56:37;;;;;;;28.50;13.00;;;;;;;1.02;100.00;101272.53;5029084;28;20037;-79
2022/01/19 00:59:02;;;;;;;25.88;11.95;;;;;;;1.02;100.00;101263.97;5028985;28;20037;-79
2022/01/19 01:01:28;;;;;;;20.08;10.68;;;;;;;1.08;100.00;101271.78;5028910;28;20595;-79
2022/01/19 01:03:53;;;;;;;23.70;11.93;;;;;;;1.05;100.00;101261.44;5028946;28;20044;-79
2022/01/19 01:06:20;;;;;;;22.00;12.43;;;;;;;1.03;100.00;101252.88;5028815;28;20500;-79
2022/01/19 01:08:45;;;;;;;26.42;12.82;;;;;;;1.07;100.00;101263.22;5029058;28;20064;-79
2022/01/19 01:11:11;;;;;;;26.95;12.20;;;;;;;1.02;100.00;101254.56;5028981;28;20489;-79
2022/01/19 01:16:36;;;;;;;24.20;12.65;;;;;;;1.05;100.00;101234.06;5028908;28;20041;-79
2022/01/19 01:19:02;;;;;;;;;;;;;;;1.17;100.00;101246.25;5029056;28;20107;-79
2022/01/19 01:21:28;;;;;;;23.75;11.50;;;;;;;1.06;100.00;101220.44;5028608;28;19908;-79
2022/01/19 01:23:54;;;;;;;16.48;10.82;;;;;;;1.07;100.00;101213.59;5030844;28;20095;-79
2022/01/19 01:26:19;;;;;;;22.75;11.93;;;;;;;1.07;100.00;101198.19;5031429;28;20026;-79
2022/01/19 01:28:44;;;;;;;22.42;11.55;;;;;;;1.17;100.00;101216.31;5029791;28;20104;-79
2022/01/19 01:31:10;;;;;;;20.65;11.73;;;;;;;1.12;100.00;101205.13;5029877;28;20510;-79
2022/01/19 01:33:37;;;;;;;20.73;11.70;;;;;;;1.17;100.00;101212.91;5035047;28;20025;-79
2022/01/19 01:36:03;;;;;;;20.50;11.23;;;;;;;1.20;100.00;101213.81;5033513;28;20469;-79
2022/01/19 01:38:29;;;;;;;20.17;11.05;;;;;;;1.18;100.00;101206.91;5033791;28;20047;-79
2022/01/19 01:40:54;;;;;;;20.58;11.35;;;;;;;1.21;100.00;101212.13;5034618;28;20434;-79
2022/01/19 01:43:20;;;;;;;22.65;11.75;;;;;;;1.27;100.00;101209.66;5033432;28;20116;-79
2022/01/19 01:45:49;;;;;;;25.35;12.07;;;;;;;1.24;100.00;101187.38;5034432;28;20432;-79
2022/01/19 01:48:18;;;;;;;19.92;11.07;;;;;;;1.22;100.00;101177.91;5034925;28;20025;-78
2022/01/19 01:53:30;;;;;;;22.23;10.82;;;;;;;1.29;100.00;101166.03;5031160;28;20148;-79
2022/01/19 01:56:01;;;;;;;19.40;11.18;;;;;;;1.30;100.00;101158.34;5014681;28;20031;-79
2022/01/19 01:58:29;;;;;;;23.73;12.13;;;;;;;1.29;100.00;101145.50;4997000;28;20367;-79
2022/01/19 02:00:55;;;;;;;20.17;12.05;;;;;;;1.14;100.00;101121.34;5014494;28;20457;-79
2022/01/19 02:03:21;;;;;;;20.80;12.70;;;;;;;1.23;100.00;101136.88;4997109;28;20034;-79
2022/01/19 02:08:39;;;;;;;24.17;14.50;;;;;;;1.24;100.00;101146.31;5014873;28;20080;-79
2022/01/19 02:16:32;;;;;;;22.48;12.65;;;;;;;1.36;100.00;101165.31;5014556;28;20033;-79
2022/01/19 02:22:06;;;;;;;20.85;11.63;;;;;;;1.36;100.00;101149.91;5014469;28;20084;-79
2022/01/19 02:24:40;;;;;;;24.63;12.55;;;;;;;1.34;100.00;101137.03;4972762;28;20046;-79
2022/01/19 02:28:56;;;;;;;18.98;11.20;;;;;;;1.37;100.00;101137.09;4972880;28;20031;-79
2022/01/19 02:40:52;;;;;;;24.25;13.45;;;;;;;1.41;100.00;101104.63;4972500;28;20125;-79
2022/01/19 02:43:23;;;;;;;19.50;12.07;;;;;;;1.37;100.00;101093.44;4972320;28;20051;-79
2022/01/19 02:51:16;;;;;;;26.63;14.73;;;;;;;1.45;100.00;101089.28;4972534;28;20077;-79
2022/01/19 02:53:42;;;;;;;25.08;13.77;;;;;;;1.43;100.00;101073.00;4973706;28;20486;-79
2022/01/19 02:56:10;;;;;;;30.42;14.38;;;;;;;1.42;100.00;101060.13;4972340;28;20047;-79
2022/01/19 02:58:44;;;;;;;21.38;12.68;;;;;;;1.46;100.00;101067.03;4955759;28;20042;-79
2022/01/19 03:09:21;;;;;;;24.17;13.98;;;;;;;1.54;100.00;101065.44;5013725;28;20112;-79
2022/01/19 03:11:46;;;;;;;25.75;13.48;;;;;;;1.39;100.00;101032.72;5013275;28;20065;-79
2022/01/19 03:14:12;;;;;;;21.23;12.68;;;;;;;1.50;100.00;101054.25;5013343;28;20033;-79
2022/01/19 03:16:37;;;;;;;23.77;13.18;;;;;;;1.50;100.00;101043.97;5013402;28;20026;-79
2022/01/19 03:19:03;;;;;;;28.00;13.25;;;;;;;1.50;100.00;101040.56;4995399;28;20030;-79
2022/01/19 03:21:29;;;;;;;21.10;12.15;;;;;;;1.48;100.00;101034.56;5012976;28;20030;-79
2022/01/19 03:23:54;;;;;;;21.67;11.93;;;;;;;1.47;100.00;101025.09;5013022;28;20588;-79
2022/01/19 03:26:20;;;;;;;24.25;12.98;;;;;;;1.35;100.00;100996.69;5013552;28;20110;-79
2022/01/19 03:28:45;;;;;;;21.38;12.48;;;;;;;1.48;100.00;101011.44;5012938;28;20025;-79
2022/01/19 03:31:10;;;;;;;22.15;12.40;;;;;;;1.50;100.00;101012.31;5013024;28;20029;-79
2022/01/19 03:33:36;;;;;;;23.50;12.88;;;;;;;1.38;100.00;100983.91;4995364;28;20507;-79
2022/01/19 03:36:01;;;;;;;17.63;10.85;;;;;;;1.49;100.00;101003.75;5012732;28;20511;-79
2022/01/19 03:38:27;;;;;;;16.42;10.90;;;;;;;1.46;100.00;100992.56;5012736;28;20101;-79
2022/01/19 03:40:52;;;;;;;18.63;11.07;;;;;;;1.41;100.00;100977.13;5012736;28;20022;-79
2022/01/19 03:43:18;;;;;;;17.98;10.90;;;;;;;1.42;100.00;100976.28;5013185;28;20040;-79
2022/01/19 03:45:51;;;;;;;15.75;9.77;;;;;;;1.43;100.00;100974.56;5012769;28;20022;-79
2022/01/19 03:50:43;;;;;;;15.23;9.77;;;;;;;1.52;100.00;100977.25;5012258;28;20125;-79
2022/01/19 03:53:08;;;;;;;17.73;11.20;;;;;;;1.45;100.00;100960.06;5012721;28;20525;-79
2022/01/19 03:55:34;;;;;;;19.23;10.60;;;;;;;1.53;100.00;100972.97;5028184;28;20051;-79
2022/01/19 03:58:00;;;;;;;14.57;9.43;;;;;;;1.54;100.00;100969.56;5030806;28;20397;-79
2022/01/19 04:00:26;;;;;;;21.08;11.85;;;;;;;1.54;100.00;100973.00;5032607;28;20056;-79
2022/01/19 04:02:51;;;;;;;13.05;9.80;;;;;;;1.50;100.00;100963.53;5031969;28;20025;-79
2022/01/19 04:05:34;;;;;;;19.45;10.95;;;;;;;1.54;100.00;100969.56;5032185;28;20029;-79
2022/01/19 04:07:59;;;;;;;16.75;11.05;;;;;;;1.52;100.00;100955.81;5032123;28;20032;-79
2022/01/19 04:10:24;;;;;;;15.43;11.07;;;;;;;1.42;100.00;100940.31;5032173;28;20029;-79
2022/01/19 04:12:58;;;;;;;16.92;11.32;;;;;;;1.61;100.00;100961.09;5032117;28;20424;-79
2022/01/19 04:15:24;;;;;;;16.42;10.95;;;;;;;1.61;100.00;100967.09;5031831;28;20037;-79
2022/01/19 04:17:54;;;;;;;17.15;10.38;;;;;;;1.55;100.00;100950.75;5030163;28;20070;-79
2022/01/19 04:20:25;;;;;;;16.13;10.23;;;;;;;1.55;100.00;100945.59;5032112;28;20033;-79
2022/01/19 04:22:50;;;;;;;18.83;11.70;;;;;;;1.64;100.00;100959.38;5031814;28;20119;-79
2022/01/19 04:25:16;;;;;;;17.02;10.98;;;;;;;1.66;100.00;100965.41;5032018;28;20124;-79
2022/01/19 04:27:43;;;;;;;19.50;10.60;;;;;;;1.61;100.00;100946.53;5031554;28;20523;-78
2022/01/19 04:30:12;;;;;;;17.60;10.75;;;;;;;1.70;100.00;100963.75;5030362;28;20049;-81
2022/01/19 04:35:10;;;;;;;16.58;10.48;;;;;;;1.69;100.00;100954.34;5031782;28;20029;-79
2022/01/19 04:45:54;;;;;;;19.13;12.68;;;;;;;1.62;100.00;100925.16;5031615;28;20091;-79
2022/01/19 05:07:27;;;;;;;;;;;;;;;1.69;100.00;100902.97;5014559;28;20100;-79
2022/01/19 05:10:02;;;;;;;21.23;13.57;;;;;;;1.64;100.00;100895.19;5015432;28;20000;-79
2022/01/19 05:15:11;;;;;;;22.38;13.52;;;;;;;1.55;100.00;100878.84;5015547;28;20037;-79
2022/01/19 05:17:37;;;;;;;29.92;15.90;;;;;;;1.61;100.00;100886.63;5015485;28;20026;-79
2022/01/19 05:20:07;;;;;;;29.17;16.95;;;;;;;1.47;100.00;100871.91;5015520;28;20460;-79
2022/01/19 05:22:32;;;;;;;24.02;14.40;;;;;;;1.58;100.00;100886.59;5015339;28;20030;-79
2022/01/19 05:24:58;;;;;;;23.33;12.98;;;;;;;1.50;100.00;100859.13;5015225;28;20056;-79
2022/01/19 05:27:23;;;;;;;21.05;11.57;;;;;;;1.55;100.00;100868.56;5015657;28;20121;-79
2022/01/19 05:29:49;;;;;;;21.73;13.40;;;;;;;1.58;100.00;100881.44;4997428;28;20389;-79
2022/01/19 05:32:15;;;;;;;22.05;12.40;;;;;;;1.54;100.00;100872.00;4997574;28;20125;-79
2022/01/19 05:34:40;;;;;;;18.45;11.95;;;;;;;1.57;100.00;100879.72;5015060;28;20533;-79
2022/01/19 05:37:06;;;;;;;18.77;11.88;;;;;;;1.55;100.00;100874.56;4997584;28;20546;-79
2022/01/19 05:39:31;;;;;;;20.48;11.55;;;;;;;1.57;100.00;100867.75;5015217;28;20065;-79
2022/01/19 05:41:57;;;;;;;17.52;11.13;;;;;;;1.47;100.00;100841.09;5015159;28;20480;-79
2022/01/19 05:44:22;;;;;;;22.13;11.77;;;;;;;1.55;100.00;100866.00;4997740;28;20072;-79
2022/01/19 05:46:48;;;;;;;19.73;11.65;;;;;;;1.55;100.00;100866.84;5015012;28;20108;-79
2022/01/19 05:49:13;;;;;;;20.77;12.38;;;;;;;1.55;100.00;100858.31;4997395;28;20088;-79
2022/01/19 05:51:39;;;;;;;16.13;11.00;;;;;;;1.57;100.00;100866.91;5014999;28;20029;-79
2022/01/19 05:54:04;;;;;;;17.23;10.55;;;;;;;1.51;100.00;100849.69;5014795;28;20057;-79
2022/01/19 05:56:30;;;;;;;19.58;11.68;;;;;;;1.47;100.00;100835.97;5015268;28;20022;-79
2022/01/19 05:58:55;;;;;;;20.92;11.82;;;;;;;1.38;100.00;100828.19;5014702;28;20424;-79
2022/01/19 06:01:21;;;;;;;17.42;11.48;;;;;;;1.38;100.00;100832.47;5015012;28;20026;-78
2022/01/19 06:03:46;;;;;;;21.33;12.27;;;;;;;1.32;100.00;100822.16;5014635;28;20384;-79
2022/01/19 06:06:12;;;;;;;19.02;10.93;;;;;;;1.30;100.00;100819.56;5014606;28;20022;-77
2022/01/19 06:08:44;;;;;;;19.10;12.77;;;;;;;1.26;100.00;100812.66;4997057;28;20034;-77
2022/01/19 06:11:11;;;;;;;21.45;13.77;;;;;;;1.16;100.00;100808.31;5014824;28;20025;-77
2022/01/19 06:13:37;;;;;;;18.40;12.88;;;;;;;1.23;100.00;100823.78;5014478;28;20037;-77
2022/01/19 06:16:03;;;;;;;20.90;13.75;;;;;;;1.17;100.00;100812.59;5014357;28;20049;-77
2022/01/19 06:18:29;;;;;;;22.33;14.95;;;;;;;1.07;100.00;100803.94;5013846;28;20100;-77
2022/01/19 06:20:54;;;;;;;23.95;15.73;;;;;;;0.92;100.00;100790.94;5014278;28;20030;-77
2022/01/19 06:23:20;;;;;;;21.10;14.65;;;;;;;0.95;100.00;100799.53;5014341;28;20044;-77
2022/01/19 06:25:45;;;;;;;21.85;14.00;;;;;;;0.86;100.00;100793.44;5014268;28;20030;-77
2022/01/19 06:28:11;;;;;;;23.95;14.30;;;;;;;0.93;100.00;100802.94;4996784;28;20030;-77
2022/01/19 06:30:37;;;;;;;23.45;15.32;;;;;;;0.67;100.00;100772.69;5014290;28;20482;-77
2022/01/19 06:33:02;;;;;;;23.52;14.80;;;;;;;0.76;100.00;100789.94;5013929;28;20153;-77
2022/01/19 06:35:28;;;;;;;23.48;14.48;;;;;;;0.75;100.00;100793.31;5014415;28;20065;-77
2022/01/19 06:37:54;;;;;;;21.20;14.63;;;;;;;0.57;100.00;100763.19;5014060;28;20025;-77
2022/01/19 06:40:25;;;;;;;24.88;14.88;;;;;;;0.62;100.00;100781.19;5014143;28;20018;-77
2022/01/19 06:42:52;;;;;;;31.45;19.02;;;;;;;0.55;100.00;100780.28;5013763;28;20037;-77
2022/01/19 06:45:17;;;;;;;37.70;22.55;;;;;;;0.47;100.00;100780.19;4996635;28;20038;-78
2022/01/19 06:47:43;;;;;;;33.47;20.35;;;;;;;0.52;100.00;100792.19;5013975;28;20307;-79
2022/01/19 06:50:10;;;;;;;30.60;20.05;;;;;;;0.49;100.00;100783.59;5014099;28;20033;-79
2022/01/19 06:52:37;;;;;;;31.98;19.38;;;;;;;0.48;100.00;100789.59;5013925;28;20038;-78
2022/01/19 06:55:05;;;;;;;34.33;20.13;;;;;;;0.43;100.00;100792.94;5017060;28;20049;-79
2022/01/19 06:57:30;;;;;;;34.90;19.85;;;;;;;0.40;100.00;100786.06;5033366;28;20400;-79
2022/01/19 06:59:56;;;;;;;33.58;19.73;;;;;;;0.39;100.00;100786.91;5033312;28;20025;-79
2022/01/19 07:02:21;;;;;;;34.50;19.88;;;;;;;0.38;100.00;100779.19;5033737;28;20030;-79
2022/01/19 07:04:49;;;;;;;31.15;18.35;;;;;;;0.39;100.00;100784.34;5033453;28;20432;-79
2022/01/19 07:07:19;;;;;;;41.17;20.45;;;;;;;0.32;100.00;100758.59;5032261;28;20037;-79
2022/01/19 07:09:46;;;;;;;38.03;19.83;;;;;;;0.36;100.00;100779.16;5015326;28;20037;-77
2022/01/19 07:12:12;;;;;;;37.85;19.55;;;;;;;0.23;100.00;100755.09;5033357;28;20025;-79
2022/01/19 07:14:39;;;;;;;38.00;20.60;;;;;;;0.28;100.00;100760.28;5033220;28;20433;-79
2022/01/19 07:17:04;;;;;;;35.88;19.67;;;;;;;0.38;100.00;100762.13;5032879;28;20523;-79
2022/01/19 07:19:31;;;;;;;44.15;23.35;;;;;;;0.37;100.00;100754.41;5033520;28;20034;-79
2022/01/19 07:21:57;;;;;;;40.30;23.60;;;;;;;0.42;100.00;100755.31;5032713;28;20528;-79
2022/01/19 07:24:23;;;;;;;48.42;26.00;;;;;;;0.41;100.00;100736.50;5010624;28;20132;-79
2022/01/19 07:26:49;;;;;;;38.25;22.63;;;;;;;0.55;100.00;100753.75;5010607;28;20056;-79
2022/01/19 07:29:14;;;;;;;37.00;21.85;;;;;;;0.61;100.00;100749.56;4993442;28;20618;-79
2022/01/19 07:31:41;;;;;;;28.63;18.30;;;;;;;0.68;100.00;100736.00;5010334;28;20133;-79
2022/01/19 07:34:07;;;;;;;28.20;17.45;;;;;;;0.79;100.00;100738.66;5010645;28;20066;-79
2022/01/19 07:36:33;;;;;;;40.90;26.23;;;;;;;0.85;100.00;100737.88;5010618;28;20026;-79
2022/01/19 07:38:58;;;;;;;37.10;24.35;;;;;;;0.94;100.00;100743.94;5010604;28;20048;-79
2022/01/19 07:41:24;;;;;;;34.58;21.30;;;;;;;0.91;100.00;100723.38;5010622;28;20148;-79
2022/01/19 07:43:49;;;;;;;32.78;21.10;;;;;;;1.02;100.00;100726.06;5010275;28;20184;-79
2022/01/19 07:46:16;;;;;;;30.15;20.40;;;;;;;1.15;100.00;100735.59;5010342;28;20026;-79
2022/01/19 07:48:43;;;;;;;42.05;25.48;;;;;;;1.28;100.00;100740.84;4993840;28;20033;-79
2022/01/19 07:51:09;;;;;;;41.10;24.65;;;;;;;1.26;100.00;100722.84;5010453;28;20049;-79
2022/01/19 07:53:35;;;;;;;36.45;20.75;;;;;;;1.45;100.00;100734.13;4993731;28;20497;-79
2022/01/19 07:56:02;;;;;;;31.80;19.17;;;;;;;1.45;100.00;100729.00;5021441;28;20049;-79
2022/01/19 07:58:28;;;;;;;30.02;19.45;;;;;;;1.45;100.00;100706.75;5031100;28;20393;-79
2022/01/19 08:00:53;;;;;;;30.30;19.33;;;;;;;1.52;100.00;100714.47;5030702;28;20108;-79
2022/01/19 08:03:19;;;;;;;28.58;17.70;;;;;;;1.59;100.00;100721.38;5032405;28;20053;-79
2022/01/19 08:05:44;;;;;;;31.60;18.52;;;;;;;1.62;100.00;100709.44;5032126;28;20065;-79
2022/01/19 08:08:11;;;;;;;32.35;20.00;;;;;;;1.50;100.00;100686.25;5032459;28;20539;-79
2022/01/19 08:10:37;;;;;;;32.03;19.33;;;;;;;1.75;100.00;100718.94;5032285;28;20489;-79
2022/01/19 08:13:04;;;;;;;29.13;17.85;;;;;;;1.62;100.00;100686.31;5031762;28;20112;-78
2022/01/19 08:15:31;;;;;;;25.98;17.73;;;;;;;1.80;100.00;100712.97;5032012;28;20629;-79
2022/01/19 08:17:57;;;;;;;28.23;18.50;;;;;;;1.86;100.00;100716.44;5030603;28;20029;-79
2022/01/19 08:20:23;;;;;;;32.17;19.20;;;;;;;1.80;100.00;100700.97;5032177;28;20531;-79
2022/01/19 08:22:48;;;;;;;35.95;22.40;;;;;;;1.92;100.00;100708.75;5031839;28;20033;-79
2022/01/19 08:25:15;;;;;;;31.70;19.60;;;;;;;1.95;100.00;100700.22;5032005;28;20116;-78
2022/01/19 08:27:40;;;;;;;39.72;23.98;;;;;;;1.96;100.00;100696.81;5031914;28;20401;-79
2022/01/19 08:30:10;;;;;;;30.45;19.15;;;;;;;2.00;100.00;100695.97;5032354;28;20021;-79
2022/01/19 08:32:35;;;;;;;29.98;17.95;;;;;;;2.06;100.00;100697.69;5031783;28;20025;-79
2022/01/19 08:35:02;;;;;;;34.15;20.85;;;;;;;2.11;100.00;100689.19;5034008;28;20028;-79
2022/01/19 08:37:30;;;;;;;37.25;21.05;;;;;;;2.18;100.00;100683.19;5050742;28;20112;-79
2022/01/19 08:39:55;;;;;;;38.60;22.92;;;;;;;2.11;100.00;100650.63;5050152;28;20446;-78
2022/01/19 08:42:21;;;;;;;35.00;21.67;;;;;;;2.16;100.00;100651.50;5044465;28;20119;-79
2022/01/19 08:44:47;;;;;;;29.48;17.95;;;;;;;2.31;100.00;100668.66;5043201;28;20021;-79
2022/01/19 08:47:12;;;;;;;38.50;24.13;;;;;;;2.18;100.00;100644.63;5036394;28;20416;-79
2022/01/19 08:49:38;;;;;;;33.75;24.52;;;;;;;2.38;100.00;100667.84;5031924;28;20108;-79
2022/01/19 08:52:05;;;;;;;30.15;22.33;;;;;;;2.29;100.00;100644.69;5016197;28;20469;-79
2022/01/19 08:54:31;;;;;;;39.55;24.35;;;;;;;2.44;100.00;100667.00;5043587;28;20057;-79
2022/01/19 08:57:04;;;;;;;54.60;36.47;;;;;;;2.46;100.00;100666.16;5013652;28;20118;-80
2022/01/19 08:59:31;;;;;;;49.53;33.20;;;;;;;2.44;100.00;100649.00;5002748;28;20038;-78
2022/01/19 09:02:17;;;;;;;31.73;22.67;;;;;;;2.52;100.00;100639.59;4956926;28;20391;-79
2022/01/19 09:04:42;;;;;;;39.63;24.50;;;;;;;2.59;100.00;100641.31;4954024;28;20042;-80
2022/01/19 09:07:08;;;;;;;34.88;21.80;;;;;;;2.64;100.00;100643.91;4970301;28;20039;-79
2022/01/19 09:09:35;;;;;;;28.55;18.23;;;;;;;2.57;100.00;100634.44;4953357;28;20034;-79
2022/01/19 09:12:01;;;;;;;26.50;16.20;;;;;;;2.49;100.00;100625.03;4970251;28;20141;-79
2022/01/19 09:14:27;;;;;;;26.77;14.95;;;;;;;2.53;100.00;100620.75;4952820;28;20534;-79
2022/01/19 09:17:01;;;;;;;25.35;16.73;;;;;;;2.55;100.00;100613.03;4967452;28;20093;-79
2022/01/19 09:19:28;;;;;;;27.80;18.60;;;;;;;2.61;100.00;100624.19;4989722;28;20046;-79
2022/01/19 09:21:55;;;;;;;25.50;16.25;;;;;;;2.69;100.00;100626.75;4989335;28;20042;-79
2022/01/19 09:24:22;;;;;;;34.13;16.90;;;;;;;2.65;100.00;100607.03;4989704;28;20042;-79
2022/01/19 09:26:48;;;;;;;33.45;20.50;;;;;;;2.75;100.00;100619.06;4989417;28;20227;-79
2022/01/19 09:29:14;;;;;;;30.85;17.23;;;;;;;2.84;100.00;100624.19;4989569;28;20114;-79
2022/01/19 09:31:41;;;;;;;41.28;21.40;;;;;;;2.87;100.00;100613.91;4973239;28;20033;-79
2022/01/19 09:34:14;;;;;;;39.17;21.35;;;;;;;2.96;100.00;100610.50;4989405;28;20043;-79
2022/01/19 09:36:47;;;;;;;43.35;20.70;;;;;;;3.06;100.00;100609.63;4989485;28;20119;-79
2022/01/19 09:39:14;;;;;;;35.40;22.00;;;;;;;3.10;100.00;100610.47;4989534;28;20131;-79
2022/01/19 09:41:41;;;;;;;30.02;17.90;;;;;;;3.03;100.00;100606.19;4989295;28;20044;-80
2022/01/19 09:44:08;;;;;;;25.67;17.17;;;;;;;2.89;100.00;100601.03;4989542;28;20458;-80
2022/01/19 09:46:34;;;;;;;28.35;17.02;;;;;;;2.88;100.00;100594.19;5029680;28;20404;-80
2022/01/19 09:49:00;;;;;;;33.33;21.08;;;;;;;2.86;100.00;100593.31;5030899;28;20021;-80
2022/01/19 09:51:28;;;;;;;27.77;17.73;;;;;;;2.88;100.00;100589.91;5014327;28;20112;-79
2022/01/19 09:53:55;;;;;;;28.58;16.85;;;;;;;2.86;100.00;100580.44;5015486;28;20570;-79
2022/01/19 09:56:20;;;;;;;28.52;17.35;;;;;;;2.80;100.00;100570.19;5015096;28;20046;-79
2022/01/19 09:58:47;;;;;;;25.83;16.75;;;;;;;2.94;100.00;100592.44;5014679;28;20030;-79
2022/01/19 10:01:20;;;;;;;26.05;15.88;;;;;;;2.87;100.00;100565.03;5014823;28;20446;-79
2022/01/19 10:03:46;;;;;;;24.58;14.30;;;;;;;2.89;100.00;100557.31;5014710;28;20029;-79
2022/01/19 10:06:22;;;;;;;22.48;14.18;;;;;;;2.88;100.00;100561.59;4997250;28;20040;-79
2022/01/19 10:08:57;;;;;;;19.30;13.15;;;;;;;2.77;100.00;100545.28;5011908;28;20034;-79
2022/01/19 10:19:34;;;;;;;18.40;12.55;;;;;;;2.21;100.00;100541.84;5014558;28;20060;-79
2022/01/19 10:21:59;;;;;;;19.55;13.32;;;;;;;2.23;100.00;100539.25;4996724;28;20033;-79
2022/01/19 10:24:41;;;;;;;21.92;13.48;;;;;;;2.41;100.00;100528.16;4996634;28;20038;-79
2022/01/19 10:27:30;;;;;;;17.40;11.32;;;;;;;2.63;100.00;100529.88;5014577;28;20062;-79
2022/01/19 10:30:04;;;;;;;18.48;11.82;;;;;;;2.79;100.00;100512.72;5014186;28;20057;-79
2022/01/19 10:32:36;;;;;;;29.02;16.55;;;;;;;2.85;100.00;100493.84;5014331;28;20030;-79
2022/01/19 10:35:21;;;;;;;20.85;13.43;;;;;;;3.03;100.00;100498.09;5013952;28;20489;-79
2022/01/19 10:38:09;;;;;;;21.13;13.32;;;;;;;3.10;100.00;100497.22;4996544;28;20026;-79
2022/01/19 10:40:37;;;;;;;21.95;14.00;;;;;;;3.19;100.00;100492.91;4934164;29;20052;-79
2022/01/19 10:43:28;;;;;;;22.13;13.23;;;;;;;3.20;100.00;100474.03;4934020;29;20486;-78
2022/01/19 10:45:55;;;;;;;20.40;13.27;;;;;;;3.25;100.00;100476.59;4933976;29;20199;-79
2022/01/19 10:48:36;;;;;;;23.17;14.10;;;;;;;3.18;100.00;100465.44;4934152;29;20036;-79
2022/01/19 10:51:21;;;;;;;20.83;13.00;;;;;;;2.92;100.00;100433.81;4947013;29;20483;-79
2022/01/19 10:54:04;;;;;;;27.77;16.05;;;;;;;2.89;100.00;100459.53;4952967;29;20035;-79
2022/01/19 10:56:31;;;;;;;20.63;14.50;;;;;;;2.71;100.00;100434.72;4937273;29;20055;-79
2022/01/19 10:59:00;;;;;;;22.45;14.25;;;;;;;2.80;100.00;100439.81;4952645;29;20547;-79
2022/01/19 11:01:36;;;;;;;19.75;13.13;;;;;;;2.77;100.00;100428.69;4953197;29;20035;-79
2022/01/19 11:04:31;;;;;;;18.48;11.88;;;;;;;2.84;100.00;100420.09;4952723;28;20530;-79
2022/01/19 11:07:05;;;;;;;40.30;25.25;;;;;;;2.87;100.00;100402.94;4952526;29;20046;-79
2022/01/19 11:09:34;;;;;;;19.15;12.75;;;;;;;3.04;100.00;100387.44;4936812;29;20395;-79
2022/01/19 11:12:07;;;;;;;17.30;12.93;;;;;;;3.12;100.00;100371.94;4952632;29;20046;-78
2022/01/19 11:14:35;;;;;;;16.63;11.95;;;;;;;3.30;100.00;100389.88;4936515;29;20023;-79
2022/01/19 11:17:02;;;;;;;17.30;11.43;;;;;;;3.41;100.00;100393.28;4954321;28;20045;-79
2022/01/19 11:19:27;;;;;;;18.02;12.18;;;;;;;3.45;100.00;100387.22;5033308;28;20032;-79
2022/01/19 11:22:05;;;;;;;19.02;13.02;;;;;;;3.54;100.00;100388.91;5033083;28;20030;-79
2022/01/19 11:24:55;;;;;;;18.23;11.50;;;;;;;3.62;100.00;100386.25;5033164;28;20122;-79
2022/01/19 11:27:23;;;;;;;15.82;10.75;;;;;;;3.54;100.00;100357.13;5032926;28;20096;-79
2022/01/19 11:30:11;;;;;;;20.60;13.38;;;;;;;3.61;100.00;100359.66;5032792;28;20656;-79
2022/01/19 11:32:37;;;;;;;21.73;14.25;;;;;;;3.61;100.00;100344.19;5032793;28;20033;-79
2022/01/19 11:35:03;;;;;;;23.95;13.88;;;;;;;3.72;100.00;100357.84;5014953;28;20032;-79
2022/01/19 11:37:34;;;;;;;16.77;12.10;;;;;;;3.68;100.00;100345.88;5014993;28;20022;-79
2022/01/19 11:40:04;;;;;;;17.30;11.65;;;;;;;3.76;100.00;100348.38;5015096;28;20562;-79
2022/01/19 11:42:29;;;;;;;18.87;11.97;;;;;;;3.76;100.00;100348.38;5033311;28;20060;-78
2022/01/19 11:44:55;;;;;;;17.70;12.40;;;;;;;3.70;100.00;100328.66;5032639;28;20057;-78
2022/01/19 11:47:29;;;;;;;17.15;11.27;;;;;;;3.78;100.00;100338.91;5032724;28;20087;-78
2022/01/19 11:50:05;;;;;;;18.15;11.88;;;;;;;3.69;100.00;100316.66;5032329;28;20026;-79
2022/01/19 11:52:36;;;;;;;19.48;12.38;;;;;;;3.80;100.00;100326.88;5032663;28;20026;-78
2022/01/19 11:55:18;;;;;;;15.85;10.38;;;;;;;3.83;100.00;100323.41;5022325;28;20073;-78
2022/01/19 11:57:47;;;;;;;17.15;11.57;;;;;;;3.78;100.00;100302.00;5012838;28;20370;-79
2022/01/19 12:00:22;;;;;;;17.08;12.55;;;;;;;3.82;100.00;100301.94;5006005;28;20034;-78
2022/01/19 12:02:50;;;;;;;17.00;11.20;;;;;;;3.81;100.00;100292.50;4994835;28;20120;-78
2022/01/19 12:05:24;;;;;;;17.17;11.73;;;;;;;3.87;100.00;100294.16;4977937;28;20068;-78
2022/01/19 12:07:50;;;;;;;18.15;11.88;;;;;;;3.92;100.00;100280.41;5012538;28;20022;-78
2022/01/19 12:10:21;;;;;;;19.23;12.00;;;;;;;3.81;100.00;100246.13;5012625;28;20026;-78
2022/01/19 12:19:08;;;;;;;17.67;11.05;;;;;;;4.07;100.00;100258.75;4931280;29;20031;-78
2022/01/19 12:21:34;;;;;;;17.42;12.77;;;;;;;4.11;100.00;100252.69;4931564;29;20040;-78
2022/01/19 12:24:24;;;;;;;17.73;12.18;;;;;;;4.10;100.00;100243.25;4915405;29;20039;-78
2022/01/19 12:26:52;;;;;;;17.50;12.23;;;;;;;4.10;100.00;100240.69;4931621;29;20085;-78
2022/01/19 12:29:33;;;;;;;18.95;12.30;;;;;;;4.12;100.00;100246.66;4916314;29;20030;-78
2022/01/19 12:32:00;;;;;;;20.38;12.82;;;;;;;4.09;100.00;100228.69;4932328;29;20059;-78
2022/01/19 12:34:38;;;;;;;19.15;12.50;;;;;;;4.06;100.00;100222.69;4932313;29;20031;-78
2022/01/19 12:37:04;;;;;;;17.92;12.43;;;;;;;4.07;100.00;100220.09;4932062;29;20546;-78
2022/01/19 12:39:29;;;;;;;18.23;11.45;;;;;;;4.19;100.00;100235.44;4932339;29;20040;-78
2022/01/19 12:41:59;;;;;;;18.45;12.80;;;;;;;4.18;100.00;100228.56;4916107;29;20424;-78
2022/01/19 12:44:44;;;;;;;17.25;12.55;;;;;;;4.16;100.00;100217.41;4932013;29;20107;-78